createdAt,value
2022-10-17T00:03:16.219Z,21.96
2022-10-17T00:10:01.577Z,21.52
2022-10-17T00:16:49.509Z,21.77
2022-10-17T00:23:35.072Z,21.68
2022-10-17T00:30:22.132Z,21.40
2022-10-17T00:37:10.117Z,21.53
2022-10-17T00:44:00.385Z,21.51
2022-10-17T00:50:50.773Z,21.48
2022-10-17T00:57:38.933Z,21.43
2022-10-17T01:04:24.896Z,21.41
2022-10-17T01:11:25.892Z,21.35
2022-10-17T01:18:32.584Z,21.30
2022-10-17T01:25:32.518Z,21.20
2022-10-17T01:32:25.076Z,21.13
2022-10-17T01:39:20.120Z,21.11
2022-10-17T01:46:15.261Z,20.01
2022-10-17T01:53:09.682Z,20.92
2022-10-17T01:59:58.293Z,20.83
2022-10-17T02:06:43.652Z,20.77
2022-10-17T02:13:48.653Z,20.68
2022-10-17T02:20:40.476Z,20.66
2022-10-17T02:27:36.733Z,20.62
2022-10-17T02:34:30.228Z,20.60
2022-10-17T02:41:21.870Z,20.49
2022-10-17T03:01:58.379Z,20.33
2022-10-17T03:08:43.899Z,20.28
2022-10-17T03:15:29.676Z,19.69
2022-10-17T03:22:18.060Z,20.23
2022-10-17T03:29:05.775Z,20.22
2022-10-17T03:35:52.696Z,20.22
2022-10-17T03:42:41.063Z,20.19
2022-10-17T03:49:26.907Z,20.16
2022-10-17T03:56:15.257Z,20.13
2022-10-17T04:03:03.893Z,20.02
2022-10-17T04:09:50.396Z,19.97
2022-10-17T04:16:38.258Z,19.94
2022-10-17T04:23:32.716Z,19.89
2022-10-17T04:30:26.760Z,19.92
2022-10-17T04:37:12.236Z,19.92
2022-10-17T04:44:00.444Z,19.88
2022-10-17T04:50:57.462Z,19.88
2022-10-17T04:57:52.640Z,18.88
2022-10-17T05:04:42.425Z,19.85
2022-10-17T05:11:32.380Z,19.54
2022-10-17T05:18:18.121Z,19.77
2022-10-17T05:25:06.637Z,19.75
2022-10-17T05:31:52.788Z,19.77
2022-10-17T05:38:39.627Z,19.35
2022-10-17T05:45:28.467Z,19.77
2022-10-17T05:52:15.229Z,19.78
2022-10-17T05:59:17.957Z,19.78
2022-10-17T06:06:15.725Z,19.72
2022-10-17T06:13:02.953Z,19.74
2022-10-17T06:19:48.484Z,19.72
2022-10-17T06:26:37.360Z,19.72
2022-10-17T06:33:25.343Z,19.75
2022-10-17T06:40:15.098Z,19.42
2022-10-17T06:47:04.936Z,19.73
2022-10-17T06:53:51.062Z,19.80
2022-10-17T07:00:59.926Z,19.89
2022-10-17T07:07:51.049Z,19.93
2022-10-17T07:14:37.619Z,20.07
2022-10-17T07:21:24.186Z,20.18
2022-10-17T07:28:12.264Z,20.09
2022-10-17T07:34:58.532Z,19.90
2022-10-17T07:41:44.372Z,19.91
2022-10-17T07:48:33.344Z,19.77
2022-10-17T07:55:19.212Z,19.75
2022-10-17T08:02:04.892Z,19.76
2022-10-17T08:08:52.848Z,19.79
2022-10-17T08:15:41.572Z,19.76
2022-10-17T08:22:28.897Z,19.80
2022-10-17T08:29:20.238Z,19.86
2022-10-17T08:36:07.304Z,19.45
2022-10-17T08:43:23.956Z,20.09
2022-10-17T08:50:19.364Z,20.10
2022-10-17T08:57:04.851Z,20.68
2022-10-17T09:04:12.830Z,21.07
2022-10-17T09:11:12.825Z,21.13
2022-10-17T09:18:02.801Z,21.22
2022-10-17T09:24:55.607Z,21.38
2022-10-17T09:31:48.561Z,21.61
2022-10-17T09:38:50.202Z,21.93
2022-10-17T09:45:44.090Z,22.27
2022-10-17T09:52:37.462Z,22.52
2022-10-17T09:59:36.138Z,22.63
2022-10-17T10:06:23.328Z,22.72
2022-10-17T10:13:22.828Z,22.77
2022-10-17T10:20:32.860Z,22.60
2022-10-17T10:27:21.906Z,22.98
2022-10-17T10:34:22.254Z,23.05
2022-10-17T10:41:10.480Z,22.29
2022-10-17T10:47:58.922Z,23.32
2022-10-17T10:54:58.022Z,23.30
2022-10-17T11:01:50.722Z,23.51
2022-10-17T11:08:46.067Z,23.63
2022-10-17T11:15:42.181Z,23.79
2022-10-17T11:22:31.559Z,24.01
2022-10-17T11:29:17.342Z,24.04
2022-10-17T11:36:10.741Z,24.14
2022-10-17T11:43:03.321Z,24.27
2022-10-17T11:49:55.068Z,24.44
2022-10-17T11:56:51.789Z,24.59
2022-10-17T12:03:54.186Z,24.74
2022-10-17T12:10:50.007Z,24.88
2022-10-17T12:17:40.761Z,25.00
2022-10-17T12:24:38.589Z,25.14
2022-10-17T12:31:33.626Z,25.33
2022-10-17T12:38:29.570Z,25.51
2022-10-17T12:45:49.535Z,25.77
2022-10-17T12:53:07.139Z,26.06
2022-10-17T12:59:58.664Z,25.92
2022-10-17T13:06:50.041Z,26.47
2022-10-17T13:13:44.812Z,26.63
2022-10-17T13:20:35.400Z,26.80
2022-10-17T13:27:32.534Z,26.97
2022-10-17T13:34:22.072Z,27.06
2022-10-17T13:41:34.749Z,27.10
2022-10-17T13:48:24.917Z,26.96
2022-10-17T13:55:17.903Z,26.77
2022-10-17T14:02:12.781Z,26.84
2022-10-17T14:09:02.652Z,27.01
2022-10-17T14:15:50.123Z,27.17
2022-10-17T14:22:40.645Z,27.21
2022-10-17T14:29:29.230Z,27.26
2022-10-17T14:36:14.860Z,26.99
2022-10-17T14:43:07.468Z,27.34
2022-10-17T14:49:55.472Z,27.37
2022-10-17T14:56:44.413Z,27.20
2022-10-17T15:03:32.550Z,27.11
2022-10-17T15:10:35.880Z,27.20
2022-10-17T15:17:25.412Z,26.50
2022-10-17T15:24:13.952Z,27.42
2022-10-17T15:30:59.338Z,27.53
2022-10-17T15:37:46.727Z,27.60
2022-10-17T15:44:36.462Z,27.56
2022-10-17T15:51:22.229Z,27.62
2022-10-17T15:58:07.581Z,27.56
2022-10-17T16:04:56.274Z,27.45
2022-10-17T16:11:44.146Z,27.36
2022-10-17T16:18:29.481Z,27.23
2022-10-17T16:25:24.788Z,27.18
2022-10-17T16:32:11.593Z,26.86
2022-10-17T16:38:57.436Z,27.13
2022-10-17T16:45:45.585Z,27.07
2022-10-17T16:52:31.467Z,27.06
2022-10-17T16:59:17.510Z,26.99
2022-10-17T17:06:06.614Z,26.88
2022-10-17T17:12:52.134Z,26.82
2022-10-17T17:19:37.505Z,26.73
2022-10-17T17:26:26.458Z,26.63
2022-10-17T17:33:11.802Z,26.59
2022-10-17T17:39:57.142Z,26.49
2022-10-17T17:46:45.077Z,25.99
2022-10-17T17:53:30.566Z,26.45
2022-10-17T18:00:17.623Z,26.40
2022-10-17T18:07:05.630Z,26.32
2022-10-17T18:13:55.231Z,26.26
2022-10-17T18:20:44.184Z,26.16
2022-10-17T18:27:32.122Z,26.10
2022-10-17T18:34:17.522Z,26.09
2022-10-17T18:41:08.401Z,25.91
2022-10-17T18:47:56.516Z,26.05
2022-10-17T18:54:41.861Z,25.63
2022-10-17T19:01:29.735Z,26.04
2022-10-17T19:08:18.873Z,25.98
2022-10-17T19:15:04.959Z,25.97
2022-10-17T19:21:50.816Z,25.93
2022-10-17T19:28:41.586Z,25.88
2022-10-17T19:35:27.251Z,25.82
2022-10-17T19:42:12.489Z,26.01
2022-10-17T19:49:00.863Z,25.76
2022-10-17T19:55:46.550Z,25.71
2022-10-17T20:02:32.290Z,25.68
2022-10-17T20:09:20.974Z,25.62
2022-10-17T20:16:09.084Z,25.60
2022-10-17T20:22:54.535Z,25.59
2022-10-17T20:29:42.493Z,25.56
2022-10-17T20:36:28.805Z,25.50
2022-10-17T20:43:16.056Z,25.44
2022-10-17T20:50:04.004Z,25.35
2022-10-17T20:56:49.404Z,25.31
2022-10-17T21:03:38.743Z,25.23
2022-10-17T21:10:35.311Z,25.16
2022-10-17T21:17:20.945Z,25.10
2022-10-17T21:24:12.426Z,25.02
2022-10-17T21:31:14.279Z,24.90
2022-10-17T21:37:59.675Z,24.88
2022-10-17T21:44:45.049Z,24.88
2022-10-17T21:51:33.063Z,24.83
2022-10-17T21:58:18.488Z,24.84
2022-10-17T22:05:03.920Z,24.84
2022-10-17T22:11:56.773Z,24.82
2022-10-17T22:18:42.651Z,24.83
2022-10-17T22:25:27.823Z,25.02
2022-10-17T22:32:20.065Z,24.76
2022-10-17T22:39:08.588Z,24.78
2022-10-17T22:45:58.181Z,24.75
2022-10-17T22:52:46.167Z,24.74
2022-10-17T22:59:31.478Z,24.74
2022-10-17T23:06:17.013Z,24.72
2022-10-17T23:13:07.448Z,24.69
2022-10-17T23:19:55.511Z,24.69
2022-10-17T23:26:42.964Z,24.63
2022-10-17T23:33:30.913Z,24.32
2022-10-17T23:40:16.892Z,24.33
2022-10-17T23:47:02.220Z,24.52
2022-10-17T23:53:50.359Z,24.00
